Latest Weather Observations for Badgerys Creek

IDN60901

Issued at 4:41 pm EDT Sunday 1 February 2015 (issued every 10 minutes, with the page automatically refreshed every 10 minutes)

About weather observations | Map of Sydney area stations | Latest observations for Sydney area | Other Formats
Station Details ID: 067108 Name: BADGERYS CREEK AWS Lat: -33.90 Lon: 150.73 Height: 81.2 m
Data from the previous 72 hours. | See also: Recent months at Badgerys Creek
Date/Time
EDT
Tmp

°C
App
Tmp
°C
Dew
Point
°C
Rel
Hum
%
Delta-T

°C
Wind Press
QNH
hPa
Press
MSL
hPa
Rain
since
9 am
mm
Dir
 
Spd
km/h
Gust
km/h
Spd
kts
Gust
kts
01/04:30pm 22.1 22.9 18.1 78 2.5 SSE 11 20 6 11 1009.3 1008.9 0.8
01/04:00pm 22.4 20.7 15.7 66 4.0 ESE 19 30 10 16 1008.9 1008.5 0.0
01/03:30pm 23.1 21.3 15.4 62 4.6 SE 19 26 10 14 1008.8 1008.4 0.0
01/03:00pm 24.7 22.9 15.6 57 5.5 ESE 19 26 10 14 1008.9 1008.5 0.0
01/02:30pm 24.9 23.6 15.8 57 5.5 E 17 24 9 13 1008.7 1008.3 0.0
01/02:00pm 26.9 27.5 15.3 49 7.1 ESE 6 15 3 8 1008.5 1008.1 0.0
01/01:30pm 26.1 26.2 15.5 52 6.5 NE 9 15 5 8 1009.0 1008.6 0.0
01/01:00pm 25.2 25.8 15.2 54 6.1 NNW 6 9 3 5 1009.2 1008.8 0.0
01/12:30pm 24.6 25.9 15.2 55 5.7 N 2 6 1 3 1009.6 1009.2 0.0
01/12:00pm 24.3 24.9 15.8 59 5.2 NE 7 11 4 6 1009.9 1009.5 0.0
01/11:30am 24.2 25.4 15.9 59 5.1 SSW 4 7 2 4 1010.0 1009.6 0.0
01/11:00am 22.6 23.5 15.0 62 4.5 NNE 4 7 2 4 1010.1 1009.7 0.0
01/10:30am 22.4 23.2 14.8 62 4.5 SE 4 9 2 5 1010.2 1009.8 0.0
01/10:00am 21.4 22.0 15.3 68 3.6 SE 6 7 3 4 1010.3 1009.9 0.0
01/09:30am 21.1 21.7 15.2 69 3.5 S 6 9 3 5 1010.2 1009.8 0.0
01/08:30am 19.6 20.2 15.3 76 2.5 S 6 9 3 5 1009.9 1009.5 0.0
01/08:00am 18.3 19.6 15.2 82 1.8 SW 2 4 1 2 1009.6 1009.2 0.0
01/07:30am 17.3 17.7 14.8 85 1.4 SW 6 7 3 4 1009.4 1009.0 0.0
01/07:00am 17.1 17.6 14.9 87 1.3 SW 6 7 3 4 1009.2 1008.8 0.0
01/06:30am 16.7 17.0 14.9 89 1.0 SW 7 11 4 6 1009.0 1008.6 0.0
01/05:30am 15.8 16.0 14.3 91 0.9 SW 6 6 3 3 1008.4 1008.0 0.0
01/05:00am 16.0 16.6 14.2 89 1.0 SW 4 6 2 3 1008.2 1007.8 0.0
01/04:30am 16.6 16.9 14.4 87 1.3 SW 6 6 3 3 1008.2 1007.8 0.0
01/04:00am 16.9 17.7 14.7 87 1.3 SW 4 6 2 3 1008.3 1007.9 0.0
01/03:30am 16.9 17.2 14.4 85 1.4 SW 6 6 3 3 1008.2 1007.8 0.0
01/03:00am 17.6 17.9 14.5 82 1.8 SW 6 6 3 3 1008.4 1008.0 0.0
01/02:30am 17.8 18.2 14.7 82 1.8 SW 6 6 3 3 1008.8 1008.4 0.0
01/02:00am 18.0 18.4 14.7 81 1.9 SW 6 7 3 4 1009.0 1008.6 0.0
01/01:30am 18.1 18.4 14.6 80 2.0 SW 6 7 3 4 1009.0 1008.6 0.0
01/01:00am 18.2 19.0 14.7 80 2.0 SW 4 6 2 3 1009.4 1009.0 0.0
01/12:30am 18.1 18.8 14.4 79 2.1 SW 4 6 2 3 1009.4 1009.0 0.0
01/12:00am 18.5 19.1 14.2 76 2.5 SW 4 6 2 3 1009.6 1009.2 0.0
 
Date/Time
EDT
Tmp

°C
App
Tmp
°C
Dew
Point
°C
Rel
Hum
%
Delta-T

°C
Wind Press
QNH
hPa
Press
MSL
hPa
Rain
since
9 am
mm
Dir
 
Spd
km/h
Gust
km/h
Spd
kts
Gust
kts
31/11:30pm 18.8 19.3 14.1 74 2.7 SW 4 6 2 3 1009.7 1009.3 0.0
31/11:00pm 18.6 19.0 14.7 78 2.3 S 6 7 3 4 1009.9 1009.5 0.0
31/10:30pm 18.3 19.0 14.4 78 2.3 SSE 4 6 2 3 1009.8 1009.4 0.0
31/10:00pm 18.7 19.1 13.6 72 2.9 SSE 4 6 2 3 1009.4 1009.0 0.0
31/09:30pm 19.3 19.5 13.0 67 3.6 SSE 4 6 2 3 1009.2 1008.8 0.0
31/09:00pm 19.6 19.7 12.8 65 3.9 SSE 4 6 2 3 1008.7 1008.3 0.0
31/08:30pm 20.2 20.0 12.9 63 4.2 SE 6 9 3 5 1008.2 1007.8 0.0
31/08:00pm 21.3 21.1 13.5 61 4.5 SE 7 13 4 7 1007.9 1007.5 0.0
31/07:30pm 22.3 22.5 14.2 60 4.8 SE 6 7 3 4 1007.3 1006.9 0.0
31/07:00pm 22.6 22.5 13.4 56 5.3 ESE 6 9 3 5 1007.2 1006.8 0.0
31/06:30pm 22.9 22.1 12.8 53 5.8 ESE 9 15 5 8 1006.7 1006.3 0.0
31/05:30pm 24.0 21.7 12.9 50 6.4 SE 17 26 9 14 1006.0 1005.6 0.0
31/05:00pm 24.4 21.8 12.0 46 7.1 ESE 17 24 9 13 1005.8 1005.4 0.0
31/04:30pm 24.0 20.5 11.0 44 7.3 ESE 20 30 11 16 1005.8 1005.4 0.0
31/04:00pm 26.6 24.3 11.9 40 8.5 E 15 24 8 13 1005.4 1005.0 0.0
31/03:30pm 27.0 26.5 11.9 39 8.7 WSW 6 11 3 6 1005.3 1004.9 0.0
31/03:00pm 26.5 26.5 12.5 41 8.2 WNW 4 11 2 6 1005.3 1004.9 0.0
31/02:30pm 26.5 26.1 12.5 41 8.1 SE 6 7 3 4 1005.5 1005.1 0.0
31/02:00pm 25.8 25.8 12.3 43 7.8 ENE 4 6 2 3 1005.8 1005.4 0.0
31/01:30pm 24.9 24.0 10.8 41 7.9 WNW 6 11 3 6 1006.2 1005.8 0.0
31/01:00pm 24.7 23.9 10.9 42 7.8 NNW 6 11 3 6 1006.6 1006.2 0.0
31/12:30pm 24.4 22.6 10.7 42 7.6 NNW 11 15 6 8 1006.9 1006.5 0.0
31/12:00pm 23.8 22.7 10.5 43 7.4 N 7 15 4 8 1007.3 1006.9 0.0
31/11:30am 23.3 22.4 11.4 47 6.7 NNW 7 11 4 6 1007.7 1007.3 0.0
31/11:00am 23.0 22.0 10.4 45 7.0 NE 6 9 3 5 1008.0 1007.6 0.0
31/10:30am 22.2 20.9 10.0 46 6.7 ENE 7 13 4 7 1008.3 1007.9 0.0
31/10:00am 22.1 21.4 11.5 51 5.9 ENE 6 9 3 5 1008.3 1007.9 0.0
31/09:30am 20.5 21.4 13.0 62 4.3 CALM 0 4 0 2 1008.4 1008.0 0.0
31/09:00am 18.8 19.6 12.5 67 3.5 CALM 0 0 0 0 1008.5 1008.1 0.0
31/08:30am 17.5 18.1 12.0 70 3.0 CALM 0 2 0 1 1008.5 1008.1 0.0
31/08:00am 16.4 15.8 11.8 74 2.5 S 6 7 3 4 1008.5 1008.1 0.0
31/07:30am 14.8 15.8 13.2 90 0.9 CALM 0 0 0 0 1008.2 1007.8 0.0
31/07:00am 13.5 13.9 12.6 94 0.5 SSE 2 4 1 2 1007.9 1007.5 0.0
31/06:30am 12.8 12.7 12.0 95 0.4 S 4 4 2 2 1007.7 1007.3 0.0
31/06:00am 12.6 12.4 11.7 94 0.5 S 4 4 2 2 1007.5 1007.1 0.0
31/05:30am 13.7 13.5 11.8 88 1.0 S 4 6 2 3 1007.2 1006.8 0.0
31/05:00am 13.9 13.6 12.8 93 0.6 S 6 6 3 3 1007.1 1006.7 0.0
31/04:30am 14.0 13.7 12.7 92 0.7 S 6 7 3 4 1007.0 1006.6 0.0
31/04:00am 14.3 14.2 13.2 93 0.6 S 6 7 3 4 1007.0 1006.6 0.0
31/03:30am 15.1 15.1 13.6 91 0.8 S 6 9 3 5 1006.9 1006.5 0.0
31/03:00am 14.7 15.0 13.4 92 0.7 S 4 6 2 3 1006.9 1006.5 0.0
31/02:30am 15.4 16.0 13.2 87 1.2 E 2 2 1 1 1006.8 1006.4 0.0
31/02:00am 15.5 16.1 14.2 92 0.7 E 4 4 2 2 1007.1 1006.7 0.0
31/01:30am 15.7 16.3 14.2 91 0.9 E 4 4 2 2 1007.3 1006.9 0.0
31/01:00am 16.4 17.4 14.2 87 1.3 E 2 4 1 2 1007.7 1007.3 0.0
31/12:30am 17.2 17.8 14.3 83 1.7 E 4 6 2 3 1008.0 1007.6 0.0
31/12:00am 18.4 18.5 14.5 78 2.3 E 7 7 4 4 1008.0 1007.6 0.0
 
Date/Time
EDT
Tmp

°C
App
Tmp
°C
Dew
Point
°C
Rel
Hum
%
Delta-T

°C
Wind Press
QNH
hPa
Press
MSL
hPa
Rain
since
9 am
mm
Dir
 
Spd
km/h
Gust
km/h
Spd
kts
Gust
kts
30/11:30pm 18.8 18.9 14.5 76 2.5 E 7 7 4 4 1008.0 1007.6 0.0
30/11:00pm 18.4 18.7 14.9 80 2.0 E 7 7 4 4 1008.1 1007.7 0.0
30/10:30pm 18.9 19.0 14.4 75 2.6 E 7 7 4 4 1008.0 1007.6 0.0
30/10:00pm 18.9 19.7 14.8 77 2.4 E 4 6 2 3 1007.8 1007.4 0.0
30/09:30pm 19.4 20.0 14.2 72 3.0 E 4 4 2 2 1007.5 1007.1 0.0
30/09:00pm 19.8 19.6 13.5 67 3.6 ESE 7 11 4 6 1007.1 1006.7 0.0
30/08:30pm 20.2 19.9 12.7 62 4.2 SE 6 11 3 6 1006.7 1006.3 0.0
30/08:00pm 21.7 20.1 11.7 53 5.6 SE 11 19 6 10 1006.3 1005.9 0.0
30/07:30pm 23.6 20.6 7.7 36 8.4 S 13 19 7 10 1005.9 1005.5 0.0
30/07:00pm 25.9 22.9 7.5 31 9.8 SW 13 22 7 12 1005.4 1005.0 0.0
30/06:30pm 26.3 22.8 7.4 30 10.1 SW 15 20 8 11 1005.2 1004.8 0.0
30/06:00pm 26.2 21.6 5.7 27 10.6 SW 19 28 10 15 1005.1 1004.7 0.0
30/05:30pm 26.5 22.4 6.0 27 10.7 SW 17 28 9 15 1005.0 1004.6 0.0
30/05:00pm 26.3 22.0 6.9 29 10.3 WSW 19 30 10 16 1005.0 1004.6 0.0
30/04:30pm 26.0 22.0 6.6 29 10.2 SW 17 28 9 15 1005.1 1004.7 0.0
30/04:00pm 26.1 22.2 7.2 30 10.1 WSW 17 22 9 12 1005.4 1005.0 0.0
30/03:30pm 26.2 22.1 7.7 31 9.9 WSW 19 28 10 15 1005.5 1005.1 0.0
30/03:00pm 26.0 22.1 8.5 33 9.5 SW 19 28 10 15 1005.7 1005.3 0.0
30/02:30pm 24.8 21.2 8.3 35 8.9 SW 17 33 9 18 1006.0 1005.6 0.0
30/02:00pm 24.3 21.6 9.1 38 8.3 SW 13 24 7 13 1006.5 1006.1 0.0
30/01:30pm 24.0 20.9 10.3 42 7.6 SSW 17 24 9 13 1007.1 1006.7 0.0
30/01:00pm 22.7 19.2 8.8 41 7.5 S 17 22 9 12 1007.4 1007.0 0.0
30/12:30pm 22.1 19.2 9.6 45 6.8 SW 15 28 8 15 1007.8 1007.4 0.0
30/12:00pm 21.9 18.3 9.8 46 6.6 SW 19 26 10 14 1008.4 1008.0 0.0
30/11:30am 21.5 18.9 9.4 46 6.5 SW 13 26 7 14 1008.9 1008.5 0.0
30/11:00am 21.6 19.8 11.0 51 5.9 WSW 11 20 6 11 1009.2 1008.8 0.0
30/10:30am 20.7 18.4 10.5 52 5.6 SSW 13 20 7 11 1009.3 1008.9 0.0
30/10:00am 19.9 17.3 9.5 51 5.6 SW 13 20 7 11 1009.7 1009.3 0.0
30/09:30am 19.1 16.2 9.6 54 5.1 WSW 15 22 8 12 1009.9 1009.5 0.0
30/09:00am 17.9 16.1 9.5 58 4.4 W 9 15 5 8 1010.0 1009.6 0.0
30/08:30am 17.2 16.5 9.9 62 3.9 W 4 6 2 3 1010.1 1009.7 0.0
30/08:00am 16.0 15.8 10.3 69 3.0 W 2 6 1 3 1010.1 1009.7 0.0
30/07:30am 14.0 14.5 11.7 86 1.2 CALM 0 0 0 0 1010.0 1009.6 0.0
30/07:00am 12.6 11.8 11.2 91 0.7 W 6 6 3 3 1009.8 1009.4 0.0
30/06:30am 12.0 11.3 10.2 89 0.9 W 4 6 2 3 1009.6 1009.2 0.0
30/06:00am 12.1 11.9 10.3 89 0.9 WSW 2 4 1 2 1009.3 1008.9 0.0
30/05:30am 12.4 11.5 9.4 82 1.5 WSW 4 6 2 3 1009.3 1008.9 0.0
30/05:00am 13.0 11.9 9.8 81 1.6 WSW 6 9 3 5 1009.3 1008.9 0.0
30/04:30am 12.9 11.2 9.7 81 1.6 WSW 9 11 5 6 1009.2 1008.8 0.0
30/04:00am 13.7 11.9 10.9 83 1.5 WSW 11 15 6 8 1009.4 1009.0 0.0
30/03:30am 13.0 11.6 10.9 87 1.1 WSW 9 13 5 7 1009.7 1009.3 0.0
30/03:00am 12.9 11.2 11.3 90 0.8 WSW 11 13 6 7 1010.0 1009.6 0.0
30/02:30am 13.3 12.0 11.4 88 1.0 W 9 15 5 8 1010.2 1009.8 0.0
30/02:00am 13.5 12.9 11.6 88 1.0 WSW 6 7 3 4 1010.5 1010.1 0.0
30/01:30am 14.2 13.0 11.7 85 1.3 WSW 9 13 5 7 1010.9 1010.5 0.0
30/01:00am 14.4 13.2 11.7 84 1.5 WSW 9 13 5 7 1011.1 1010.7 0.0
30/12:30am 14.6 13.4 11.7 83 1.6 SW 9 11 5 6 1011.4 1011.0 0.0
30/12:00am 14.4 13.2 11.7 84 1.5 SW 9 11 5 6 1011.7 1011.3 0.0
 
Date/Time
EDT
Tmp

°C
App
Tmp
°C
Dew
Point
°C
Rel
Hum
%
Delta-T

°C
Wind Press
QNH
hPa
Press
MSL
hPa
Rain
since
9 am
mm
Dir
 
Spd
km/h
Gust
km/h
Spd
kts
Gust
kts
29/11:30pm 14.7 14.5 11.7 82 1.6 SW 4 6 2 3 1012.0 1011.6 0.0
29/11:00pm 15.3 14.7 11.7 79 2.0 SW 6 7 3 4 1012.2 1011.8 0.0
29/10:30pm 15.9 15.6 11.3 74 2.5 SW 4 6 2 3 1012.4 1012.0 0.0
29/10:00pm 17.1 15.8 11.2 68 3.2 SSW 9 13 5 7 1012.3 1011.9 0.0
29/09:30pm 17.6 15.0 10.7 64 3.7 S 15 20 8 11 1012.1 1011.7 0.0
29/09:00pm 18.3 16.2 11.1 63 3.9 S 13 20 7 11 1011.9 1011.5 0.0
29/08:30pm 18.8 15.8 10.6 59 4.4 S 17 28 9 15 1011.6 1011.2 0.0
29/08:00pm 18.6 17.3 12.6 68 3.4 SSE 11 15 6 8 1011.1 1010.7 0.0
29/07:30pm 19.9 17.5 11.4 58 4.7 S 15 22 8 12 1010.9 1010.5 0.0
29/07:00pm 20.3 16.7 10.7 54 5.3 SE 20 30 11 16 1010.3 1009.9 0.0
29/06:30pm 23.0 19.9 8.7 40 7.6 SSE 15 26 8 14 1009.8 1009.4 0.0
29/06:00pm 23.4 19.9 8.7 39 7.9 SSE 17 24 9 13 1009.6 1009.2 0.0
29/05:30pm 23.2 18.9 7.7 37 8.2 S 20 30 11 16 1009.8 1009.4 0.0
29/05:00pm 23.5 19.5 8.4 38 8.1 S 19 26 10 14 1010.0 1009.6 0.0

Latest Capital City Observations: Canberra | Sydney | Melbourne | Brisbane | Adelaide | Perth | Hobart | Darwin

Other Formats:

Comma delimited format used in spreadsheet applications
http://www.bom.gov.au/fwo/IDN60901/IDN60901.94752.axf

JavaScript Object Notation format (JSON) in row-major order
http://www.bom.gov.au/fwo/IDN60901/IDN60901.94752.json